createdAt,value
2018-06-16T00:01:53.411Z,17.80
2018-06-16T00:04:21.699Z,17.70
2018-06-16T00:06:49.975Z,17.60
2018-06-16T00:09:18.245Z,17.60
2018-06-16T00:11:46.533Z,17.60
2018-06-16T00:14:15.732Z,17.60
2018-06-16T00:16:43.980Z,17.60
2018-06-16T00:19:12.685Z,17.60
2018-06-16T00:21:41.700Z,17.60
2018-06-16T00:24:12.644Z,17.60
2018-06-16T00:26:42.519Z,17.50
2018-06-16T00:29:10.809Z,17.40
2018-06-16T00:31:39.080Z,17.40
2018-06-16T00:34:07.368Z,17.50
2018-06-16T00:36:35.631Z,17.50
2018-06-16T00:39:03.896Z,17.40
2018-06-16T00:41:33.121Z,17.40
2018-06-16T00:44:01.807Z,17.40
2018-06-16T00:46:30.080Z,17.40
2018-06-16T00:48:58.370Z,17.50
2018-06-16T00:51:26.616Z,17.40
2018-06-16T00:53:54.901Z,17.30
2018-06-16T00:56:23.166Z,17.20
2018-06-16T00:58:51.468Z,17.20
2018-06-16T01:01:19.754Z,17.20
2018-06-16T01:03:48.009Z,17.20
2018-06-16T01:06:16.296Z,17.40
2018-06-16T01:08:44.584Z,17.40
2018-06-16T01:11:13.548Z,17.30
2018-06-16T01:13:43.182Z,17.20
2018-06-16T01:16:12.497Z,17.30
2018-06-16T01:18:40.744Z,17.20
2018-06-16T01:21:09.032Z,17.20
2018-06-16T01:23:37.279Z,17.20
2018-06-16T01:26:05.560Z,17.20
2018-06-16T01:28:33.833Z,17.20
2018-06-16T01:31:02.985Z,17.30
2018-06-16T01:33:32.048Z,17.20
2018-06-16T01:36:00.300Z,17.20
2018-06-16T01:38:28.592Z,17.20
2018-06-16T01:40:56.852Z,17.20
2018-06-16T01:43:25.132Z,17.20
2018-06-16T01:45:53.417Z,17.10
2018-06-16T01:48:21.704Z,17.10
2018-06-16T01:50:49.991Z,17.10
2018-06-16T01:53:18.249Z,17.10
2018-06-16T01:55:46.545Z,17.10
2018-06-16T01:58:14.792Z,17.10
2018-06-16T02:00:43.795Z,17.10
2018-06-16T02:03:12.967Z,17.10
2018-06-16T02:05:40.449Z,17.10
2018-06-16T02:08:08.741Z,17.10
2018-06-16T02:10:37.021Z,17.10
2018-06-16T02:13:05.308Z,17.10
2018-06-16T02:15:33.993Z,17.10
2018-06-16T02:18:02.277Z,17.20
2018-06-16T02:20:30.576Z,17.10
2018-06-16T02:22:58.825Z,17.00
2018-06-16T02:25:27.105Z,17.00
2018-06-16T02:27:55.372Z,16.90
2018-06-16T02:30:23.656Z,16.90
2018-06-16T02:32:51.912Z,17.00
2018-06-16T02:35:20.196Z,17.00
2018-06-16T02:37:47.675Z,17.00
2018-06-16T02:40:15.944Z,16.90
2018-06-16T02:42:43.440Z,16.80
2018-06-16T02:45:12.633Z,16.80
2018-06-16T02:47:42.637Z,16.80
2018-06-16T02:50:11.712Z,16.80
2018-06-16T02:52:39.927Z,16.80
2018-06-16T02:55:08.195Z,16.80
2018-06-16T02:57:36.489Z,16.80
2018-06-16T03:00:04.782Z,16.80
2018-06-16T03:02:34.228Z,16.70
2018-06-16T03:05:02.485Z,16.70
2018-06-16T03:07:30.759Z,16.70
2018-06-16T03:09:59.041Z,16.70
2018-06-16T03:12:27.385Z,16.70
2018-06-16T03:14:55.654Z,16.60
2018-06-16T03:17:23.925Z,16.60
2018-06-16T03:19:52.221Z,16.50
2018-06-16T03:22:20.480Z,16.50
2018-06-16T03:24:48.765Z,16.50
2018-06-16T03:27:17.028Z,16.50
2018-06-16T03:29:45.307Z,16.60
2018-06-16T03:32:13.958Z,16.50
2018-06-16T03:34:42.592Z,16.50
2018-06-16T03:37:12.458Z,16.50
2018-06-16T03:39:42.049Z,16.60
2018-06-16T03:42:10.373Z,16.60
2018-06-16T03:44:38.642Z,16.60
2018-06-16T03:47:06.960Z,16.60
2018-06-16T03:49:35.220Z,16.70
2018-06-16T03:52:03.467Z,16.70
2018-06-16T03:54:32.921Z,16.70
2018-06-16T03:57:01.876Z,16.70
2018-06-16T03:59:30.149Z,16.70
2018-06-16T04:01:58.433Z,16.70
2018-06-16T04:04:26.688Z,16.70
2018-06-16T04:06:54.969Z,16.70
2018-06-16T04:09:23.233Z,16.80
2018-06-16T04:11:51.528Z,16.90
2018-06-16T04:14:19.780Z,16.90
2018-06-16T04:16:48.032Z,16.90
2018-06-16T04:19:16.320Z,16.90
2018-06-16T04:21:44.572Z,16.80
2018-06-16T04:24:15.880Z,16.80
2018-06-16T04:26:43.372Z,16.80
2018-06-16T04:29:13.166Z,16.90
2018-06-16T04:31:42.535Z,16.90
2018-06-16T04:34:10.793Z,16.90
2018-06-16T04:36:39.072Z,16.90
2018-06-16T04:39:07.340Z,17.00
2018-06-16T04:41:35.625Z,17.00
2018-06-16T04:44:03.875Z,17.00
2018-06-16T04:46:33.048Z,17.10
2018-06-16T04:49:02.125Z,17.10
2018-06-16T04:51:30.429Z,17.10
2018-06-16T04:53:58.690Z,17.10
2018-06-16T04:56:26.185Z,17.10
2018-06-16T04:58:54.473Z,17.10
2018-06-16T05:01:22.764Z,17.20
2018-06-16T05:03:51.020Z,17.10
2018-06-16T05:06:19.321Z,17.20
2018-06-16T05:08:47.577Z,17.20
2018-06-16T05:11:15.870Z,17.20
2018-06-16T05:13:43.374Z,17.20
2018-06-16T05:16:13.082Z,17.30
2018-06-16T05:18:42.397Z,17.30
2018-06-16T05:21:12.424Z,17.30
2018-06-16T05:23:40.681Z,17.30
2018-06-16T05:26:08.201Z,17.30
2018-06-16T05:28:36.454Z,17.30
2018-06-16T05:31:04.759Z,17.30
2018-06-16T05:33:33.806Z,17.40
2018-06-16T05:36:02.637Z,17.40
2018-06-16T05:38:30.902Z,17.50
2018-06-16T05:40:59.218Z,17.50
2018-06-16T05:43:27.481Z,17.50
2018-06-16T05:45:55.772Z,17.60
2018-06-16T05:48:24.055Z,17.50
2018-06-16T05:50:52.307Z,17.60
2018-06-16T05:53:20.571Z,17.60
2018-06-16T05:55:48.877Z,17.70
2018-06-16T05:58:17.164Z,17.70
2018-06-16T06:00:45.429Z,17.70
2018-06-16T06:03:13.716Z,17.80
2018-06-16T06:05:42.988Z,17.90
2018-06-16T06:08:11.244Z,17.90
2018-06-16T06:10:39.567Z,18.00
2018-06-16T06:13:07.796Z,18.00
2018-06-16T06:15:36.084Z,18.00
2018-06-16T06:18:04.361Z,18.00
2018-06-16T06:20:34.032Z,18.10
2018-06-16T06:23:03.207Z,18.10
2018-06-16T06:25:31.895Z,18.20
2018-06-16T06:28:00.173Z,18.30
2018-06-16T06:30:28.440Z,18.30
2018-06-16T06:32:56.740Z,18.20
2018-06-16T06:35:24.995Z,18.30
2018-06-16T06:37:53.283Z,18.30
2018-06-16T06:40:21.572Z,18.30
2018-06-16T06:42:49.837Z,18.30
2018-06-16T06:45:18.117Z,18.40
2018-06-16T06:47:45.629Z,18.40
2018-06-16T06:50:13.888Z,18.40
2018-06-16T06:52:42.218Z,18.40
2018-06-16T06:55:12.640Z,18.60
2018-06-16T06:57:41.696Z,18.60
2018-06-16T07:00:09.948Z,18.60
2018-06-16T07:02:38.345Z,18.70
2018-06-16T07:05:06.598Z,18.70
2018-06-16T07:07:34.856Z,18.80
2018-06-16T07:10:06.277Z,18.90
2018-06-16T07:12:34.531Z,18.90
2018-06-16T07:15:03.912Z,19.00
2018-06-16T07:17:32.995Z,18.90
2018-06-16T07:20:04.974Z,19.10
2018-06-16T07:22:34.527Z,19.10
2018-06-16T07:25:03.908Z,19.30
2018-06-16T07:27:33.186Z,19.20
2018-06-16T07:30:02.076Z,19.20
2018-06-16T07:32:30.357Z,19.10
2018-06-16T07:34:58.620Z,19.10
2018-06-16T07:37:26.909Z,19.20
2018-06-16T07:39:55.167Z,19.20
2018-06-16T07:42:23.454Z,19.30
2018-06-16T07:44:51.722Z,19.30
2018-06-16T07:47:19.998Z,19.40
2018-06-16T07:49:48.261Z,19.50
2018-06-16T07:52:16.549Z,19.50
2018-06-16T07:54:44.813Z,19.50
2018-06-16T07:57:14.202Z,19.60
2018-06-16T07:59:43.696Z,19.60
2018-06-16T08:02:12.937Z,19.70
2018-06-16T08:04:41.229Z,19.70
2018-06-16T08:07:09.494Z,19.60
2018-06-16T08:09:37.797Z,19.60
2018-06-16T08:12:06.059Z,19.60
2018-06-16T08:14:34.352Z,19.80
2018-06-16T08:17:02.613Z,19.90
2018-06-16T08:19:30.909Z,20.00
2018-06-16T08:21:59.256Z,20.10
2018-06-16T08:24:27.576Z,20.00
2018-06-16T08:26:55.788Z,20.10
2018-06-16T08:29:24.861Z,20.10
2018-06-16T08:31:53.100Z,20.20
2018-06-16T08:34:24.959Z,20.40
2018-06-16T08:36:53.221Z,20.60
2018-06-16T08:39:21.504Z,20.60
2018-06-16T08:41:49.796Z,20.80
2018-06-16T08:44:18.074Z,20.90
2018-06-16T08:46:46.324Z,20.90
2018-06-16T08:49:14.619Z,21.10
2018-06-16T08:51:44.108Z,21.10
2018-06-16T08:54:12.806Z,21.20
2018-06-16T08:56:41.737Z,21.20
2018-06-16T08:59:09.996Z,21.30
2018-06-16T09:01:38.272Z,21.30
2018-06-16T09:04:06.632Z,21.40
2018-06-16T09:06:34.848Z,21.40
2018-06-16T09:09:04.003Z,21.60
2018-06-16T09:11:33.192Z,21.70
2018-06-16T09:14:02.151Z,21.80
2018-06-16T09:16:30.441Z,21.80
2018-06-16T09:18:58.700Z,21.90
2018-06-16T09:21:26.984Z,22.00
2018-06-16T09:23:55.241Z,22.10
2018-06-16T09:26:23.527Z,22.10
2018-06-16T09:28:51.781Z,22.20
2018-06-16T09:31:20.076Z,22.10
2018-06-16T09:33:48.333Z,22.10
2018-06-16T09:36:17.562Z,22.20
2018-06-16T09:38:45.853Z,22.20
2018-06-16T09:41:14.107Z,22.30
2018-06-16T09:43:43.338Z,22.30
2018-06-16T09:46:14.935Z,22.30
2018-06-16T09:48:43.784Z,22.30
2018-06-16T09:51:13.068Z,22.60
2018-06-16T09:53:41.326Z,22.60
2018-06-16T09:56:09.612Z,22.70
2018-06-16T09:58:37.865Z,22.80
2018-06-16T10:01:06.138Z,22.90
2018-06-16T10:03:34.418Z,23.10
2018-06-16T10:06:04.079Z,23.20
2018-06-16T10:08:33.328Z,23.20
2018-06-16T10:11:02.092Z,23.30
2018-06-16T10:13:30.376Z,23.30
2018-06-16T10:15:58.714Z,23.50
2018-06-16T10:18:27.072Z,23.60
2018-06-16T10:20:55.330Z,23.60
2018-06-16T10:23:23.619Z,23.60
2018-06-16T10:25:51.871Z,23.50
2018-06-16T10:28:20.147Z,23.60
2018-06-16T10:30:49.351Z,23.60
2018-06-16T10:33:17.643Z,23.70
2018-06-16T10:35:45.901Z,23.90
2018-06-16T10:38:14.164Z,24.10
2018-06-16T10:40:43.602Z,24.20
2018-06-16T10:43:12.774Z,24.20
2018-06-16T10:45:41.729Z,24.10
2018-06-16T10:48:09.983Z,23.90
2018-06-16T10:50:38.269Z,23.60
2018-06-16T10:53:06.552Z,23.50
2018-06-16T10:55:34.804Z,23.50
2018-06-16T10:58:03.864Z,23.40
2018-06-16T11:00:32.833Z,23.30
2018-06-16T11:03:01.090Z,23.00
2018-06-16T11:05:29.384Z,22.90
2018-06-16T11:07:57.677Z,22.70
2018-06-16T11:10:25.928Z,22.60
2018-06-16T11:12:54.180Z,22.60
2018-06-16T11:15:22.464Z,22.40
2018-06-16T11:17:50.757Z,22.40
2018-06-16T11:20:19.011Z,22.40
2018-06-16T11:22:47.260Z,22.40
2018-06-16T11:25:16.455Z,22.40
2018-06-16T11:27:44.706Z,22.50
2018-06-16T11:30:14.415Z,22.60
2018-06-16T11:32:43.794Z,22.60
2018-06-16T11:35:12.077Z,22.50
2018-06-16T11:37:40.328Z,22.50
2018-06-16T11:40:09.571Z,22.70
2018-06-16T11:42:37.833Z,22.80
2018-06-16T11:45:06.108Z,22.70
2018-06-16T11:47:34.365Z,22.40
2018-06-16T11:50:02.649Z,22.40
2018-06-16T11:52:30.905Z,22.40
2018-06-16T11:54:59.189Z,22.40
2018-06-16T11:57:26.708Z,22.40
2018-06-16T11:59:54.985Z,22.30
2018-06-16T12:02:23.286Z,22.20
2018-06-16T12:04:52.489Z,22.20
2018-06-16T12:07:20.747Z,22.10
2018-06-16T12:09:49.060Z,22.10
2018-06-16T12:12:17.309Z,22.20
2018-06-16T12:14:45.591Z,22.60
2018-06-16T12:17:13.840Z,23.00
2018-06-16T12:19:42.131Z,23.40
2018-06-16T12:22:10.390Z,23.60
2018-06-16T12:24:40.671Z,24.00
2018-06-16T12:27:08.916Z,24.10
2018-06-16T12:29:37.204Z,24.20
2018-06-16T12:32:05.465Z,24.40
2018-06-16T12:34:33.749Z,24.70
2018-06-16T12:37:02.061Z,24.70
2018-06-16T12:39:30.339Z,24.70
2018-06-16T12:41:58.603Z,24.70
2018-06-16T12:44:30.614Z,24.60
2018-06-16T12:46:58.867Z,24.50
2018-06-16T12:49:27.145Z,24.40
2018-06-16T12:51:55.409Z,24.40
2018-06-16T12:54:23.704Z,24.50
2018-06-16T12:56:51.962Z,24.70
2018-06-16T12:59:20.240Z,24.80
2018-06-16T13:01:48.532Z,24.80
2018-06-16T13:04:20.168Z,24.90
2018-06-16T13:06:48.439Z,24.90
2018-06-16T13:09:16.716Z,24.90
2018-06-16T13:11:44.960Z,24.90
2018-06-16T13:14:13.257Z,25.10
2018-06-16T13:16:42.625Z,25.30
2018-06-16T13:19:10.872Z,25.40
2018-06-16T13:21:39.152Z,25.60
2018-06-16T13:24:07.445Z,25.80
2018-06-16T13:26:35.725Z,26.00
2018-06-16T13:29:03.984Z,26.20
2018-06-16T13:31:33.473Z,26.20
2018-06-16T13:34:02.133Z,26.10
2018-06-16T13:36:30.504Z,26.20
2018-06-16T13:38:58.704Z,26.40
2018-06-16T13:41:26.952Z,26.40
2018-06-16T13:43:55.228Z,26.40
2018-06-16T13:46:23.505Z,26.40
2018-06-16T13:48:51.806Z,26.40
2018-06-16T13:51:20.056Z,26.40
2018-06-16T13:53:48.321Z,26.50
2018-06-16T13:56:16.608Z,26.70
2018-06-16T13:58:44.863Z,26.90
2018-06-16T14:01:13.128Z,26.90
2018-06-16T14:03:42.448Z,26.90
2018-06-16T14:06:10.697Z,27.00
2018-06-16T14:08:38.943Z,27.00
2018-06-16T14:11:07.242Z,27.10
2018-06-16T14:13:35.531Z,27.20
2018-06-16T14:16:03.824Z,27.30
2018-06-16T14:18:32.108Z,27.20
2018-06-16T14:21:00.393Z,26.90
2018-06-16T14:23:28.657Z,26.60
2018-06-16T14:25:56.180Z,26.50
2018-06-16T14:28:24.436Z,26.40
2018-06-16T14:30:52.700Z,26.30
2018-06-16T14:33:20.214Z,26.30
2018-06-16T14:35:48.456Z,26.40
2018-06-16T14:38:16.753Z,26.40
2018-06-16T14:40:45.034Z,26.30
2018-06-16T14:43:13.278Z,26.00
2018-06-16T14:45:42.339Z,26.20
2018-06-16T14:48:10.591Z,26.30
2018-06-16T14:50:38.881Z,26.30
2018-06-16T14:53:07.172Z,26.20
2018-06-16T14:55:35.425Z,26.30
2018-06-16T14:58:03.701Z,26.20
2018-06-16T15:00:32.949Z,26.00
2018-06-16T15:03:01.232Z,26.10
2018-06-16T15:05:29.498Z,26.00
2018-06-16T15:07:57.780Z,25.80
2018-06-16T15:10:26.117Z,25.60
2018-06-16T15:12:53.561Z,25.60
2018-06-16T15:15:21.846Z,25.20
2018-06-16T15:17:50.111Z,25.10
2018-06-16T15:20:18.415Z,25.10
2018-06-16T15:22:46.664Z,24.90
2018-06-16T15:25:14.953Z,24.90
2018-06-16T15:27:43.223Z,24.90
2018-06-16T15:30:12.608Z,24.80
2018-06-16T15:32:42.031Z,24.80
2018-06-16T15:35:10.368Z,24.70
2018-06-16T15:37:38.624Z,24.70
2018-06-16T15:40:06.921Z,24.60
2018-06-16T15:42:35.178Z,24.50
2018-06-16T15:45:03.745Z,24.50
2018-06-16T15:47:33.089Z,24.40
2018-06-16T15:50:01.381Z,24.30
2018-06-16T15:52:31.090Z,24.20
2018-06-16T15:54:59.402Z,24.10
2018-06-16T15:57:27.671Z,24.00
2018-06-16T15:59:55.974Z,24.00
2018-06-16T16:02:24.250Z,24.00
2018-06-16T16:04:52.492Z,23.90
2018-06-16T16:07:20.797Z,23.90
2018-06-16T16:09:49.056Z,23.90
2018-06-16T16:12:17.299Z,23.80
2018-06-16T16:14:46.645Z,23.80
2018-06-16T16:17:14.888Z,23.90
2018-06-16T16:19:49.191Z,23.80
2018-06-16T16:22:17.440Z,23.70
2018-06-16T16:24:45.705Z,23.50
2018-06-16T16:27:13.988Z,23.40
2018-06-16T16:29:42.642Z,23.30
2018-06-16T16:32:12.419Z,23.30
2018-06-16T16:34:40.808Z,23.30
2018-06-16T16:37:09.054Z,23.20
2018-06-16T16:39:37.332Z,23.10
2018-06-16T16:42:05.624Z,23.10
2018-06-16T16:44:33.877Z,23.00
2018-06-16T16:47:02.603Z,23.00
2018-06-16T16:49:30.884Z,22.90
2018-06-16T16:51:59.160Z,22.80
2018-06-16T16:54:27.452Z,22.60
2018-06-16T16:56:55.745Z,22.50
2018-06-16T16:59:24.389Z,22.40
2018-06-16T17:01:52.724Z,22.30
2018-06-16T17:04:21.007Z,22.40
2018-06-16T17:06:49.272Z,22.30
2018-06-16T17:09:17.576Z,22.20
2018-06-16T17:11:45.837Z,22.10
2018-06-16T17:14:14.098Z,22.00
2018-06-16T17:16:43.489Z,22.00
2018-06-16T17:19:12.651Z,22.00
2018-06-16T17:21:42.597Z,22.10
2018-06-16T17:24:11.635Z,22.00
2018-06-16T17:26:39.930Z,22.10
2018-06-16T17:29:07.495Z,22.10
2018-06-16T17:31:35.756Z,22.10
2018-06-16T17:34:04.011Z,22.10
2018-06-16T17:36:32.942Z,22.20
2018-06-16T17:39:01.191Z,22.20
2018-06-16T17:41:29.469Z,22.20
2018-06-16T17:43:57.730Z,22.30
2018-06-16T17:46:26.013Z,22.30
2018-06-16T17:48:54.275Z,22.30
2018-06-16T17:51:22.557Z,22.30
2018-06-16T17:53:50.807Z,22.30
2018-06-16T17:56:19.094Z,22.30
2018-06-16T17:58:47.343Z,22.30
2018-06-16T18:01:15.625Z,22.30
2018-06-16T18:03:43.903Z,22.20
2018-06-16T18:06:12.180Z,22.00
2018-06-16T18:08:40.428Z,21.80
2018-06-16T18:11:08.708Z,21.70
2018-06-16T18:13:37.001Z,21.70
2018-06-16T18:16:05.253Z,21.70
2018-06-16T18:18:32.766Z,21.70
2018-06-16T18:21:01.062Z,21.60
2018-06-16T18:23:29.332Z,21.50
2018-06-16T18:25:57.589Z,21.50
2018-06-16T18:28:25.864Z,21.40
2018-06-16T18:30:54.121Z,21.30
2018-06-16T18:33:22.388Z,21.30
2018-06-16T18:35:50.651Z,21.20
2018-06-16T18:38:18.943Z,21.10
2018-06-16T18:40:47.204Z,20.90
2018-06-16T18:43:15.508Z,21.00
2018-06-16T18:45:43.768Z,21.00
2018-06-16T18:48:12.032Z,20.90
2018-06-16T18:50:40.319Z,21.00
2018-06-16T18:53:08.584Z,21.10
2018-06-16T18:55:36.872Z,21.10
2018-06-16T18:58:05.134Z,21.00
2018-06-16T19:00:34.192Z,20.90
2018-06-16T19:03:03.475Z,20.90
2018-06-16T19:05:31.001Z,20.90
2018-06-16T19:07:59.260Z,20.90
2018-06-16T19:10:27.552Z,20.80
2018-06-16T19:12:55.815Z,20.70
2018-06-16T19:15:23.360Z,20.70
2018-06-16T19:17:51.649Z,20.70
2018-06-16T19:20:19.895Z,20.70
2018-06-16T19:22:48.189Z,20.50
2018-06-16T19:25:16.449Z,20.50
2018-06-16T19:27:44.739Z,20.40
2018-06-16T19:30:13.590Z,20.40
2018-06-16T19:32:42.783Z,20.40
2018-06-16T19:35:11.740Z,20.50
2018-06-16T19:37:40.020Z,20.50
2018-06-16T19:40:08.279Z,20.40
2018-06-16T19:42:36.540Z,20.40
2018-06-16T19:45:04.842Z,20.50
2018-06-16T19:47:35.002Z,20.50
2018-06-16T19:50:03.858Z,20.40
2018-06-16T19:52:33.039Z,20.30
2018-06-16T19:55:01.342Z,20.20
2018-06-16T19:57:28.836Z,20.20
2018-06-16T19:59:57.144Z,20.10
2018-06-16T20:02:25.425Z,20.20
2018-06-16T20:04:53.687Z,20.20
2018-06-16T20:07:23.106Z,20.20
2018-06-16T20:09:51.368Z,20.10
2018-06-16T20:12:19.656Z,20.10
2018-06-16T20:14:47.945Z,19.90
2018-06-16T20:17:16.259Z,20.00
2018-06-16T20:19:44.508Z,20.00
2018-06-16T20:22:13.484Z,19.90
2018-06-16T20:24:43.033Z,19.90
2018-06-16T20:27:10.552Z,19.90
2018-06-16T20:29:38.881Z,19.70
2018-06-16T20:32:07.137Z,19.70
2018-06-16T20:34:35.412Z,19.70
2018-06-16T20:37:03.732Z,19.60
2018-06-16T20:39:33.684Z,19.60
2018-06-16T20:42:01.199Z,19.60
2018-06-16T20:44:29.493Z,19.50
2018-06-16T20:46:57.761Z,19.40
2018-06-16T20:49:26.909Z,19.60
2018-06-16T20:51:55.208Z,19.60
2018-06-16T20:54:23.499Z,19.60
2018-06-16T20:56:51.025Z,19.60
2018-06-16T20:59:19.311Z,19.70
2018-06-16T21:01:47.604Z,19.70
2018-06-16T21:04:15.894Z,19.80
2018-06-16T21:06:43.411Z,19.70
2018-06-16T21:09:12.687Z,19.70
2018-06-16T21:11:41.704Z,19.60
2018-06-16T21:14:10.098Z,19.60
2018-06-16T21:16:38.362Z,19.50
2018-06-16T21:19:06.656Z,19.50
2018-06-16T21:21:35.012Z,19.50
2018-06-16T21:24:04.488Z,19.50
2018-06-16T21:26:32.753Z,19.60
2018-06-16T21:29:01.056Z,19.60
2018-06-16T21:31:29.319Z,19.60
2018-06-16T21:33:57.563Z,19.60
2018-06-16T21:36:25.845Z,19.60
2018-06-16T21:38:54.099Z,19.60
2018-06-16T21:41:22.388Z,19.60
2018-06-16T21:43:50.648Z,19.60
2018-06-16T21:46:18.933Z,19.60
2018-06-16T21:48:47.187Z,19.60
2018-06-16T21:51:15.476Z,19.60
2018-06-16T21:53:43.724Z,19.70
2018-06-16T21:56:13.068Z,19.80
2018-06-16T21:58:40.559Z,19.70
2018-06-16T22:01:08.848Z,19.80
2018-06-16T22:03:37.101Z,19.70
2018-06-16T22:06:05.360Z,19.70
2018-06-16T22:08:34.785Z,19.70
2018-06-16T22:11:03.986Z,19.60
2018-06-16T22:13:32.337Z,19.70
2018-06-16T22:16:00.591Z,19.60
2018-06-16T22:18:28.851Z,19.60
2018-06-16T22:20:57.145Z,19.50
2018-06-16T22:23:25.440Z,19.50
2018-06-16T22:25:53.707Z,19.50
2018-06-16T22:28:21.983Z,19.40
2018-06-16T22:30:50.240Z,19.40
2018-06-16T22:33:18.533Z,19.30
2018-06-16T22:35:46.792Z,19.30
2018-06-16T22:38:15.040Z,19.20
2018-06-16T22:40:43.320Z,19.20
2018-06-16T22:43:12.876Z,19.10
2018-06-16T22:45:41.166Z,19.10
2018-06-16T22:48:09.437Z,19.00
2018-06-16T22:50:37.723Z,19.00
2018-06-16T22:53:06.009Z,18.90
2018-06-16T22:55:34.259Z,18.90
2018-06-16T22:58:03.352Z,18.90
2018-06-16T23:00:32.393Z,18.80
2018-06-16T23:03:00.686Z,18.70
2018-06-16T23:05:28.969Z,18.70
2018-06-16T23:07:57.229Z,18.50
2018-06-16T23:10:25.505Z,18.50
2018-06-16T23:12:53.757Z,18.40
2018-06-16T23:15:22.048Z,18.40
2018-06-16T23:17:50.333Z,18.20
2018-06-16T23:20:18.624Z,18.10
2018-06-16T23:22:46.880Z,17.90
2018-06-16T23:25:15.189Z,17.80
2018-06-16T23:27:43.448Z,17.70
2018-06-16T23:30:13.325Z,17.70
2018-06-16T23:32:43.065Z,17.70
2018-06-16T23:35:10.589Z,17.70
2018-06-16T23:37:38.836Z,17.60
2018-06-16T23:40:07.156Z,17.60
2018-06-16T23:42:35.440Z,17.60
2018-06-16T23:45:07.316Z,17.60
2018-06-16T23:47:35.597Z,17.60
2018-06-16T23:50:03.843Z,17.60
2018-06-16T23:52:33.068Z,17.60
2018-06-16T23:55:01.316Z,17.60
2018-06-16T23:57:29.608Z,17.60
2018-06-16T23:59:57.852Z,17.70
